createdAt,value
2018-10-06T00:01:44.106Z,80.00
2018-10-06T00:04:18.723Z,80.00
2018-10-06T00:06:53.250Z,80.30
2018-10-06T00:09:27.807Z,80.20
2018-10-06T00:12:02.333Z,80.00
2018-10-06T00:14:36.850Z,80.10
2018-10-06T00:17:11.458Z,80.80
2018-10-06T00:19:46.130Z,80.80
2018-10-06T00:22:20.728Z,80.30
2018-10-06T00:24:55.679Z,80.10
2018-10-06T00:27:30.255Z,80.70
2018-10-06T00:30:05.053Z,80.70
2018-10-06T00:32:39.731Z,80.40
2018-10-06T00:35:14.186Z,79.80
2018-10-06T00:37:48.828Z,79.90
2018-10-06T00:40:23.354Z,79.30
2018-10-06T00:42:57.904Z,78.90
2018-10-06T00:45:32.517Z,78.80
2018-10-06T00:48:07.050Z,79.50
2018-10-06T00:50:41.585Z,79.40
2018-10-06T00:53:16.219Z,79.40
2018-10-06T00:55:50.797Z,79.90
2018-10-06T00:58:25.335Z,79.60
2018-10-06T01:01:00.140Z,80.10
2018-10-06T01:03:34.666Z,79.70
2018-10-06T01:06:09.300Z,79.50
2018-10-06T01:08:43.710Z,79.10
2018-10-06T01:11:18.256Z,79.40
2018-10-06T01:13:52.729Z,79.50
2018-10-06T01:16:27.361Z,79.40
2018-10-06T01:21:36.259Z,78.20
2018-10-06T01:24:10.801Z,79.10
2018-10-06T01:26:45.221Z,78.60
2018-10-06T01:29:19.695Z,78.50
2018-10-06T01:31:54.268Z,78.20
2018-10-06T01:34:28.649Z,78.40
2018-10-06T01:37:03.370Z,78.60
2018-10-06T01:39:37.986Z,78.50
2018-10-06T01:42:12.778Z,78.60
2018-10-06T01:44:47.391Z,81.20
2018-10-06T01:47:22.061Z,81.20
2018-10-06T01:49:56.581Z,81.20
2018-10-06T01:52:31.171Z,81.20
2018-10-06T01:55:05.703Z,80.90
2018-10-06T01:57:40.327Z,81.40
2018-10-06T02:00:14.842Z,82.00
2018-10-06T02:02:49.236Z,81.70
2018-10-06T02:05:23.920Z,81.30
2018-10-06T02:07:58.494Z,81.30
2018-10-06T02:10:33.167Z,80.70
2018-10-06T02:13:07.714Z,80.60
2018-10-06T02:15:42.378Z,80.40
2018-10-06T02:18:17.010Z,80.20
2018-10-06T02:20:51.414Z,80.70
2018-10-06T02:23:25.990Z,81.10
2018-10-06T02:26:00.572Z,80.90
2018-10-06T02:28:35.186Z,81.20
2018-10-06T02:31:09.792Z,81.50
2018-10-06T02:33:44.228Z,81.70
2018-10-06T02:36:18.679Z,81.30
2018-10-06T02:38:53.197Z,82.50
2018-10-06T02:41:27.624Z,82.60
2018-10-06T02:44:02.207Z,82.00
2018-10-06T02:46:36.800Z,81.60
2018-10-06T02:49:11.394Z,81.80
2018-10-06T02:51:46.002Z,82.30
2018-10-06T02:54:20.585Z,82.10
2018-10-06T02:56:54.982Z,82.30
2018-10-06T02:59:29.365Z,82.20
2018-10-06T03:02:03.848Z,81.60
2018-10-06T03:04:38.375Z,82.60
2018-10-06T03:07:13.043Z,82.40
2018-10-06T03:09:47.710Z,83.00
2018-10-06T03:12:22.189Z,82.50
2018-10-06T03:14:56.621Z,82.30
2018-10-06T03:17:31.086Z,83.20
2018-10-06T03:20:05.547Z,82.80
2018-10-06T03:22:40.101Z,82.50
2018-10-06T03:25:14.516Z,82.20
2018-10-06T03:27:49.104Z,82.00
2018-10-06T03:30:23.524Z,81.90
2018-10-06T03:32:58.199Z,82.10
2018-10-06T03:35:32.720Z,81.80
2018-10-06T03:38:07.278Z,81.60
2018-10-06T03:40:41.862Z,81.60
2018-10-06T03:43:16.396Z,81.30
2018-10-06T03:45:50.965Z,81.70
2018-10-06T03:48:25.368Z,82.00
2018-10-06T03:50:59.915Z,81.60
2018-10-06T03:53:34.322Z,82.10
2018-10-06T03:56:08.912Z,82.80
2018-10-06T03:58:43.334Z,82.50
2018-10-06T04:01:18.059Z,83.30
2018-10-06T04:03:52.726Z,83.00
2018-10-06T04:06:27.297Z,82.00
2018-10-06T04:09:01.908Z,82.80
2018-10-06T04:11:36.583Z,83.00
2018-10-06T04:14:11.012Z,82.90
2018-10-06T04:16:45.536Z,82.40
2018-10-06T04:19:19.959Z,83.10
2018-10-06T04:21:54.531Z,83.30
2018-10-06T04:24:28.986Z,83.00
2018-10-06T04:27:03.766Z,83.50
2018-10-06T04:29:38.325Z,83.40
2018-10-06T04:32:12.786Z,83.50
2018-10-06T04:34:47.372Z,83.00
2018-10-06T04:37:22.052Z,82.50
2018-10-06T04:39:56.508Z,82.70
2018-10-06T04:42:31.132Z,82.40
2018-10-06T04:45:05.610Z,82.70
2018-10-06T04:47:39.851Z,82.40
2018-10-06T04:50:14.237Z,82.20
2018-10-06T04:52:48.690Z,82.60
2018-10-06T04:55:23.354Z,82.80
2018-10-06T04:57:57.698Z,82.90
2018-10-06T05:00:32.376Z,83.10
2018-10-06T05:03:06.945Z,82.90
2018-10-06T05:05:41.346Z,83.10
2018-10-06T05:08:16.069Z,84.10
2018-10-06T05:10:50.678Z,84.20
2018-10-06T05:13:25.189Z,83.90
2018-10-06T05:15:59.604Z,83.60
2018-10-06T05:18:34.244Z,83.90
2018-10-06T05:21:08.779Z,82.70
2018-10-06T05:23:43.263Z,83.50
2018-10-06T05:26:17.884Z,83.90
2018-10-06T05:28:52.369Z,84.20
2018-10-06T05:31:27.021Z,84.20
2018-10-06T05:34:01.683Z,83.60
2018-10-06T05:36:36.216Z,83.40
2018-10-06T05:39:11.562Z,83.00
2018-10-06T05:41:46.152Z,82.50
2018-10-06T05:44:20.609Z,82.40
2018-10-06T05:46:55.115Z,82.10
2018-10-06T05:49:29.660Z,82.00
2018-10-06T05:52:04.181Z,81.70
2018-10-06T05:54:38.809Z,81.90
2018-10-06T05:57:13.208Z,82.00
2018-10-06T05:59:47.764Z,82.30
2018-10-06T06:02:22.203Z,82.70
2018-10-06T06:04:56.883Z,82.70
2018-10-06T06:07:31.455Z,82.70
2018-10-06T06:10:05.819Z,83.60
2018-10-06T06:12:40.728Z,84.70
2018-10-06T06:15:15.272Z,85.40
2018-10-06T06:17:49.712Z,85.50
2018-10-06T06:20:24.014Z,86.20
2018-10-06T06:22:58.718Z,86.50
2018-10-06T06:25:33.365Z,86.20
2018-10-06T06:28:07.725Z,86.20
2018-10-06T06:30:42.116Z,86.20
2018-10-06T06:33:16.715Z,85.70
2018-10-06T06:35:51.281Z,85.60
2018-10-06T06:38:25.881Z,85.30
2018-10-06T06:41:00.507Z,84.90
2018-10-06T06:43:35.223Z,84.60
2018-10-06T06:46:09.999Z,83.60
2018-10-06T06:48:44.522Z,83.80
2018-10-06T06:51:19.188Z,83.00
2018-10-06T06:53:53.780Z,82.40
2018-10-06T06:56:28.190Z,82.20
2018-10-06T06:59:02.666Z,80.40
2018-10-06T07:01:37.226Z,78.50
2018-10-06T07:04:11.747Z,78.50
2018-10-06T07:06:46.434Z,78.50
2018-10-06T07:09:20.859Z,78.00
2018-10-06T07:11:55.392Z,76.90
2018-10-06T07:14:29.950Z,76.30
2018-10-06T07:17:04.628Z,75.20
2018-10-06T07:19:39.110Z,74.30
2018-10-06T07:22:13.515Z,74.50
2018-10-06T07:24:47.997Z,74.30
2018-10-06T07:27:22.417Z,72.40
2018-10-06T07:29:56.946Z,72.20
2018-10-06T07:32:31.620Z,72.30
2018-10-06T07:35:06.160Z,70.80
2018-10-06T07:37:40.665Z,70.70
2018-10-06T07:40:15.079Z,70.20
2018-10-06T07:42:49.629Z,70.00
2018-10-06T07:45:24.155Z,70.20
2018-10-06T07:47:58.575Z,69.70
2018-10-06T07:50:33.215Z,68.00
2018-10-06T07:53:07.867Z,66.90
2018-10-06T07:55:42.471Z,67.60
2018-10-06T07:58:17.183Z,68.40
2018-10-06T08:00:51.712Z,68.20
2018-10-06T08:03:26.836Z,68.10
2018-10-06T08:06:01.460Z,66.30
2018-10-06T08:08:36.015Z,65.70
2018-10-06T08:11:10.621Z,65.30
2018-10-06T08:13:45.034Z,64.80
2018-10-06T08:16:19.356Z,64.80
2018-10-06T08:18:53.818Z,64.40
2018-10-06T08:21:28.517Z,64.60
2018-10-06T08:24:03.014Z,65.50
2018-10-06T08:26:38.049Z,65.00
2018-10-06T08:29:12.475Z,63.90
2018-10-06T08:31:46.840Z,64.30
2018-10-06T08:34:21.078Z,63.80
2018-10-06T08:36:55.460Z,63.90
2018-10-06T08:39:30.046Z,64.10
2018-10-06T08:42:04.479Z,64.20
2018-10-06T08:44:38.995Z,63.70
2018-10-06T08:47:13.521Z,63.40
2018-10-06T08:49:47.951Z,63.70
2018-10-06T08:52:22.312Z,63.20
2018-10-06T08:54:56.714Z,62.30
2018-10-06T08:57:30.986Z,62.10
2018-10-06T09:00:05.368Z,61.40
2018-10-06T09:02:39.682Z,59.90
2018-10-06T09:05:14.082Z,59.80
2018-10-06T09:07:48.394Z,59.30
2018-10-06T09:10:22.931Z,59.10
2018-10-06T09:12:57.572Z,59.30
2018-10-06T09:15:32.039Z,57.70
2018-10-06T09:18:06.675Z,57.40
2018-10-06T09:20:41.116Z,56.30
2018-10-06T09:23:15.733Z,55.50
2018-10-06T09:25:50.192Z,54.80
2018-10-06T09:28:24.782Z,54.40
2018-10-06T09:30:59.311Z,53.90
2018-10-06T09:33:33.813Z,53.30
2018-10-06T09:36:08.432Z,53.90
2018-10-06T09:38:42.820Z,53.60
2018-10-06T09:41:17.302Z,53.90
2018-10-06T09:43:51.889Z,56.00
2018-10-06T09:46:26.482Z,53.80
2018-10-06T09:49:00.949Z,53.50
2018-10-06T09:51:35.476Z,52.20
2018-10-06T09:54:10.133Z,51.90
2018-10-06T09:56:44.599Z,49.70
2018-10-06T09:59:19.178Z,49.20
2018-10-06T10:01:59.118Z,48.90
2018-10-06T10:04:33.601Z,48.50
2018-10-06T10:07:08.184Z,47.90
2018-10-06T10:09:42.823Z,48.00
2018-10-06T10:12:17.491Z,49.90
2018-10-06T10:14:52.066Z,49.30
2018-10-06T10:17:26.687Z,50.20
2018-10-06T10:20:01.204Z,47.10
2018-10-06T10:22:35.886Z,49.10
2018-10-06T10:25:10.255Z,48.70
2018-10-06T10:27:44.684Z,51.10
2018-10-06T10:30:19.185Z,50.10
2018-10-06T10:32:53.789Z,51.90
2018-10-06T10:35:28.313Z,52.30
2018-10-06T10:38:02.773Z,50.30
2018-10-06T10:40:37.307Z,51.80
2018-10-06T10:43:11.829Z,50.50
2018-10-06T10:45:46.425Z,50.80
2018-10-06T10:48:21.239Z,49.40
2018-10-06T10:50:55.865Z,48.20
2018-10-06T10:53:30.608Z,48.50
2018-10-06T10:56:05.224Z,47.30
2018-10-06T10:58:39.617Z,45.20
2018-10-06T11:01:14.298Z,46.70
2018-10-06T11:03:48.728Z,47.50
2018-10-06T11:06:23.339Z,46.70
2018-10-06T11:08:57.944Z,44.70
2018-10-06T11:11:32.408Z,43.70
2018-10-06T11:14:06.946Z,44.60
2018-10-06T11:16:41.996Z,44.70
2018-10-06T11:19:16.709Z,45.90
2018-10-06T11:21:51.418Z,45.90
2018-10-06T11:24:25.996Z,45.90
2018-10-06T11:27:00.520Z,45.20
2018-10-06T11:29:35.134Z,46.70
2018-10-06T11:32:09.854Z,46.30
2018-10-06T11:34:44.254Z,46.20
2018-10-06T11:37:18.919Z,46.80
2018-10-06T11:39:53.566Z,47.00
2018-10-06T11:42:28.068Z,46.40
2018-10-06T11:45:02.776Z,47.00
2018-10-06T11:47:37.258Z,45.60
2018-10-06T11:50:11.821Z,43.90
2018-10-06T11:55:20.878Z,46.90
2018-10-06T11:57:55.506Z,46.30
2018-10-06T12:00:30.371Z,44.60
2018-10-06T12:03:05.146Z,44.50
2018-10-06T12:05:39.919Z,41.90
2018-10-06T12:08:14.884Z,42.70
2018-10-06T12:10:49.699Z,42.90
2018-10-06T12:13:24.520Z,43.00
2018-10-06T12:15:59.417Z,42.60
2018-10-06T12:18:34.235Z,44.00
2018-10-06T12:21:09.129Z,43.30
2018-10-06T12:23:44.065Z,41.80
2018-10-06T12:26:21.468Z,42.20
2018-10-06T12:30:31.759Z,43.40
2018-10-06T12:33:06.623Z,42.40
2018-10-06T12:35:41.543Z,43.20
2018-10-06T12:38:16.210Z,43.90
2018-10-06T12:40:50.938Z,44.20
2018-10-06T12:43:25.469Z,44.60
2018-10-06T12:46:00.008Z,44.70
2018-10-06T12:48:34.647Z,44.00
2018-10-06T12:51:09.354Z,45.50
2018-10-06T12:53:44.100Z,46.20
2018-10-06T12:56:18.594Z,45.80
2018-10-06T12:58:53.216Z,45.30
2018-10-06T13:01:27.872Z,46.50
2018-10-06T13:04:02.488Z,46.00
2018-10-06T13:06:37.109Z,46.30
2018-10-06T13:09:12.359Z,46.30
2018-10-06T13:11:47.239Z,46.00
2018-10-06T13:14:22.118Z,45.20
2018-10-06T13:17:03.395Z,45.40
2018-10-06T13:19:38.215Z,45.10
2018-10-06T13:22:12.957Z,44.40
2018-10-06T13:24:51.640Z,45.00
2018-10-06T13:27:26.447Z,43.60
2018-10-06T13:30:01.289Z,43.60
2018-10-06T13:32:37.110Z,45.00
2018-10-06T13:35:11.839Z,44.70
2018-10-06T13:37:46.709Z,44.90
2018-10-06T13:40:21.437Z,43.90
2018-10-06T13:42:56.143Z,45.10
2018-10-06T13:45:30.751Z,44.10
2018-10-06T13:48:05.613Z,44.80
2018-10-06T13:50:40.096Z,44.90
2018-10-06T13:53:15.910Z,44.60
2018-10-06T13:55:52.113Z,44.00
2018-10-06T13:58:27.256Z,44.50
2018-10-06T14:01:01.838Z,44.40
2018-10-06T14:03:36.486Z,43.90
2018-10-06T14:06:10.999Z,43.90
2018-10-06T14:08:46.884Z,43.60
2018-10-06T14:11:21.521Z,43.20
2018-10-06T14:13:56.353Z,43.90
2018-10-06T14:16:31.263Z,44.10
2018-10-06T14:19:05.950Z,42.50
2018-10-06T14:21:40.977Z,43.10
2018-10-06T14:24:15.672Z,43.00
2018-10-06T14:26:50.637Z,43.60
2018-10-06T14:29:25.460Z,42.60
2018-10-06T14:32:00.037Z,43.80
2018-10-06T14:34:34.855Z,43.60
2018-10-06T14:37:09.692Z,43.90
2018-10-06T14:39:44.314Z,42.90
2018-10-06T14:42:18.848Z,43.60
2018-10-06T14:44:53.787Z,44.10
2018-10-06T14:50:02.888Z,43.60
2018-10-06T14:52:37.679Z,44.20
2018-10-06T14:55:12.416Z,44.30
2018-10-06T14:57:46.997Z,45.00
2018-10-06T15:00:21.623Z,43.80
2018-10-06T15:02:56.114Z,43.40
2018-10-06T15:05:30.751Z,43.60
2018-10-06T15:08:05.611Z,42.70
2018-10-06T15:10:40.265Z,43.40
2018-10-06T15:13:14.885Z,43.70
2018-10-06T15:15:49.587Z,42.70
2018-10-06T15:18:24.233Z,42.50
2018-10-06T15:20:58.869Z,42.30
2018-10-06T15:23:33.593Z,41.80
2018-10-06T15:26:08.098Z,42.50
2018-10-06T15:28:42.835Z,43.60
2018-10-06T15:31:17.401Z,43.70
2018-10-06T15:33:51.904Z,44.50
2018-10-06T15:36:26.565Z,44.40
2018-10-06T15:39:01.171Z,44.70
2018-10-06T15:41:35.764Z,45.30
2018-10-06T15:44:10.479Z,45.30
2018-10-06T15:46:45.003Z,46.10
2018-10-06T15:49:19.633Z,47.10
2018-10-06T15:51:54.375Z,47.90
2018-10-06T15:54:29.103Z,48.60
2018-10-06T15:57:03.517Z,49.30
2018-10-06T15:59:38.116Z,49.20
2018-10-06T16:02:12.753Z,49.90
2018-10-06T16:04:47.435Z,50.20
2018-10-06T16:07:21.941Z,50.90
2018-10-06T16:09:56.583Z,51.60
2018-10-06T16:12:31.209Z,51.80
2018-10-06T16:15:05.824Z,52.50
2018-10-06T16:17:40.443Z,53.30
2018-10-06T16:20:15.026Z,54.70
2018-10-06T16:22:49.443Z,55.20
2018-10-06T16:25:24.129Z,56.00
2018-10-06T16:27:58.687Z,56.90
2018-10-06T16:30:33.168Z,57.40
2018-10-06T16:33:07.985Z,59.20
2018-10-06T16:35:42.651Z,61.00
2018-10-06T16:38:17.107Z,62.00
2018-10-06T16:40:51.786Z,61.90
2018-10-06T16:43:26.239Z,61.60
2018-10-06T16:46:00.802Z,61.40
2018-10-06T16:48:35.265Z,62.00
2018-10-06T16:51:09.672Z,61.80
2018-10-06T16:53:44.258Z,62.10
2018-10-06T16:56:19.022Z,62.20
2018-10-06T16:58:53.723Z,62.30
2018-10-06T17:01:28.147Z,62.60
2018-10-06T17:04:02.756Z,63.10
2018-10-06T17:06:37.278Z,63.30
2018-10-06T17:09:12.246Z,63.80
2018-10-06T17:11:46.794Z,64.40
2018-10-06T17:14:21.407Z,65.00
2018-10-06T17:16:56.065Z,65.00
2018-10-06T17:19:30.563Z,65.20
2018-10-06T17:22:05.143Z,65.50
2018-10-06T17:24:39.713Z,65.30
2018-10-06T17:27:14.313Z,65.70
2018-10-06T17:29:48.963Z,66.30
2018-10-06T17:32:23.526Z,66.80
2018-10-06T17:34:57.984Z,66.90
2018-10-06T17:37:32.581Z,67.00
2018-10-06T17:40:07.153Z,67.20
2018-10-06T17:42:41.729Z,67.20
2018-10-06T17:45:16.196Z,67.60
2018-10-06T17:47:50.734Z,67.90
2018-10-06T17:50:25.442Z,68.20
2018-10-06T17:52:59.750Z,68.50
2018-10-06T17:55:34.291Z,70.20
2018-10-06T17:58:09.053Z,72.60
2018-10-06T18:00:43.699Z,73.60
2018-10-06T18:03:18.166Z,73.30
2018-10-06T18:08:26.913Z,71.10
2018-10-06T18:11:01.570Z,71.20
2018-10-06T18:13:36.192Z,71.60
2018-10-06T18:16:10.698Z,72.20
2018-10-06T18:18:45.216Z,73.00
2018-10-06T18:21:20.203Z,72.70
2018-10-06T18:23:55.551Z,72.70
2018-10-06T18:26:30.074Z,72.30
2018-10-06T18:31:38.892Z,92.70
2018-10-06T18:34:13.420Z,71.10
2018-10-06T18:36:47.902Z,71.90
2018-10-06T18:39:22.489Z,71.80
2018-10-06T18:44:31.300Z,70.90
2018-10-06T18:47:05.917Z,72.00
2018-10-06T18:49:40.445Z,73.10
2018-10-06T18:52:15.105Z,71.90
2018-10-06T18:54:49.645Z,71.90
2018-10-06T18:57:24.198Z,72.30
2018-10-06T18:59:58.670Z,72.00
2018-10-06T19:02:33.217Z,72.00
2018-10-06T19:05:07.704Z,73.00
2018-10-06T19:07:42.335Z,74.80
2018-10-06T19:10:16.950Z,77.00
2018-10-06T19:12:51.442Z,77.90
2018-10-06T19:18:00.206Z,76.70
2018-10-06T19:20:34.787Z,76.60
2018-10-06T19:23:09.498Z,76.40
2018-10-06T19:25:44.224Z,76.50
2018-10-06T19:28:18.847Z,76.10
2018-10-06T19:30:53.519Z,75.80
2018-10-06T19:33:28.184Z,75.50
2018-10-06T19:36:02.828Z,75.40
2018-10-06T19:38:37.290Z,75.80
2018-10-06T19:41:11.771Z,77.00
2018-10-06T19:43:46.377Z,76.90
2018-10-06T19:46:21.049Z,77.60
2018-10-06T19:48:55.431Z,77.20
2018-10-06T19:51:29.988Z,76.70
2018-10-06T19:54:04.515Z,76.10
2018-10-06T19:56:39.130Z,75.70
2018-10-06T19:59:13.670Z,75.50
2018-10-06T20:01:48.196Z,75.00
2018-10-06T20:04:22.944Z,75.30
2018-10-06T20:06:57.430Z,77.00
2018-10-06T20:09:31.965Z,77.70
2018-10-06T20:12:06.910Z,77.50
2018-10-06T20:14:41.367Z,77.30
2018-10-06T20:17:15.776Z,77.00
2018-10-06T20:19:50.079Z,76.60
2018-10-06T20:22:24.465Z,76.10
2018-10-06T20:24:58.864Z,75.90
2018-10-06T20:27:33.269Z,75.60
2018-10-06T20:30:07.610Z,75.50
2018-10-06T20:32:41.911Z,75.40
2018-10-06T20:35:16.228Z,75.30
2018-10-06T20:37:50.527Z,75.30
2018-10-06T20:40:24.774Z,74.20
2018-10-06T20:42:59.187Z,73.90
2018-10-06T20:48:07.992Z,73.60
2018-10-06T20:50:42.470Z,74.80
2018-10-06T20:53:16.883Z,75.00
2018-10-06T20:55:51.165Z,75.00
2018-10-06T20:58:25.737Z,74.70
2018-10-06T21:01:00.182Z,75.00
2018-10-06T21:03:34.511Z,74.60
2018-10-06T21:06:08.975Z,75.80
2018-10-06T21:08:43.238Z,74.30
2018-10-06T21:11:17.594Z,75.00
2018-10-06T21:13:52.024Z,75.20
2018-10-06T21:16:26.280Z,75.20
2018-10-06T21:19:00.557Z,74.80
2018-10-06T21:21:34.920Z,75.00
2018-10-06T21:24:09.332Z,75.10
2018-10-06T21:26:43.713Z,75.40
2018-10-06T21:29:18.231Z,75.30
2018-10-06T21:31:52.747Z,75.90
2018-10-06T21:34:27.171Z,75.50
2018-10-06T21:37:01.625Z,76.50
2018-10-06T21:39:35.945Z,78.00
2018-10-06T21:42:10.278Z,78.90
2018-10-06T21:44:44.677Z,78.60
2018-10-06T21:47:19.099Z,77.90
2018-10-06T21:49:53.388Z,77.40
2018-10-06T21:52:27.660Z,77.90
2018-10-06T21:55:02.083Z,77.50
2018-10-06T21:57:36.452Z,77.50
2018-10-06T22:00:10.722Z,77.10
2018-10-06T22:02:45.092Z,77.30
2018-10-06T22:05:19.615Z,77.50
2018-10-06T22:07:53.883Z,76.80
2018-10-06T22:10:28.408Z,76.20
2018-10-06T22:13:02.719Z,76.60
2018-10-06T22:15:37.092Z,77.10
2018-10-06T22:18:11.440Z,77.00
2018-10-06T22:20:46.276Z,77.10
2018-10-06T22:23:20.837Z,77.30
2018-10-06T22:25:55.274Z,77.20
2018-10-06T22:28:29.666Z,77.20
2018-10-06T22:31:04.134Z,76.40
2018-10-06T22:33:38.496Z,75.70
2018-10-06T22:36:13.039Z,75.60
2018-10-06T22:38:47.459Z,75.60
2018-10-06T22:41:21.887Z,75.40
2018-10-06T22:43:56.137Z,75.80
2018-10-06T22:46:30.577Z,75.30
2018-10-06T22:49:05.107Z,76.10
2018-10-06T22:51:39.582Z,75.90
2018-10-06T22:54:13.924Z,76.70
2018-10-06T22:56:48.343Z,77.00
2018-10-06T22:59:22.686Z,77.20
2018-10-06T23:01:57.248Z,75.80
2018-10-06T23:04:31.519Z,75.70
2018-10-06T23:07:05.882Z,76.10
2018-10-06T23:09:40.192Z,76.90
2018-10-06T23:12:14.470Z,77.30
2018-10-06T23:14:48.725Z,78.10
2018-10-06T23:17:26.019Z,79.20
2018-10-06T23:20:00.351Z,81.30
2018-10-06T23:22:34.739Z,81.50
2018-10-06T23:25:09.109Z,81.40
2018-10-06T23:27:43.589Z,80.40
2018-10-06T23:30:17.865Z,81.00
2018-10-06T23:32:52.331Z,79.50
2018-10-06T23:35:26.767Z,79.70
2018-10-06T23:38:01.154Z,78.60
2018-10-06T23:40:35.594Z,78.60
2018-10-06T23:43:10.110Z,79.70
2018-10-06T23:45:44.440Z,81.90
2018-10-06T23:48:18.955Z,82.20
2018-10-06T23:50:53.504Z,81.60
2018-10-06T23:53:27.769Z,84.40
2018-10-06T23:56:02.231Z,86.70
2018-10-06T23:58:36.452Z,88.30
